Time;durP1;ratioP1;P1;durP2;ratioP2;P2;SDS_P1;SDS_P2;PMS_P1;PMS_P2;Temp;Humidity;BMP_temperature;BMP_pressure;BME280_temperature;BME280_humidity;BME280_pressure;Samples;Min_cycle;Max_cycle;Signal;HPM_P1;HPM_P2
2021/10/25 00:00:54;;;;;;;5.90;2.03;;;;;;;3.75;82.61;96865.69;5038265;28;20227;-69
2021/10/25 00:03:21;;;;;;;1.50;1.40;;;;;;;3.89;81.86;96875.84;5037945;28;20212;-69
2021/10/25 00:05:48;;;;;;;4.03;1.73;;;;;;;3.78;81.67;96875.03;5036750;28;20251;-69
2021/10/25 00:08:14;;;;;;;3.33;1.23;;;;;;;3.76;81.94;96877.78;5038612;28;20274;-69
2021/10/25 00:10:41;;;;;;;2.67;1.50;;;;;;;4.07;83.67;96876.19;5037579;28;20251;-69
2021/10/25 00:13:08;;;;;;;3.33;2.00;;;;;;;3.96;85.54;96879.66;5037608;28;20201;-69
2021/10/25 00:15:36;;;;;;;4.10;2.20;;;;;;;4.14;85.92;96870.34;5037164;28;20208;-69
2021/10/25 00:18:04;;;;;;;7.60;1.90;;;;;;;4.03;85.55;96875.59;5037750;28;21312;-69
2021/10/25 00:20:31;;;;;;;1.40;1.30;;;;;;;4.12;85.67;96871.44;5034612;28;20311;-69
2021/10/25 00:22:57;;;;;;;1.77;1.67;;;;;;;3.96;86.44;96869.22;5037641;28;20845;-68
2021/10/25 00:25:24;;;;;;;2.10;1.77;;;;;;;4.11;85.13;96867.16;5037003;28;20201;-69
2021/10/25 00:27:51;;;;;;;1.40;1.30;;;;;;;4.07;85.46;96869.19;5037372;28;20204;-70
2021/10/25 00:30:17;;;;;;;2.10;1.90;;;;;;;4.29;85.20;96869.94;5037713;28;20662;-69
2021/10/25 00:32:45;;;;;;;1.63;1.43;;;;;;;4.55;84.77;96871.25;5036911;28;20219;-69
2021/10/25 00:35:11;;;;;;;1.23;1.13;;;;;;;4.38;84.71;96864.00;5037285;28;20581;-69
2021/10/25 00:37:38;;;;;;;6.47;1.60;;;;;;;4.41;84.52;96865.53;5036844;28;20237;-69
2021/10/25 00:40:06;;;;;;;0.80;0.80;;;;;;;4.52;84.55;96866.31;5036869;28;20225;-69
2021/10/25 00:42:33;;;;;;;2.23;1.93;;;;;;;4.32;85.31;96866.28;5037205;28;20205;-69
2021/10/25 00:44:59;;;;;;;1.57;1.47;;;;;;;4.29;85.94;96866.53;5037534;28;20254;-69
2021/10/25 00:47:26;;;;;;;1.27;1.17;;;;;;;4.36;86.07;96865.88;5036502;28;20225;-69
2021/10/25 00:49:54;;;;;;;4.50;2.43;;;;;;;4.50;86.97;96862.97;5036990;28;20240;-69
2021/10/25 00:52:20;;;;;;;5.70;2.43;;;;;;;4.38;86.38;96860.56;5037362;28;20237;-68
2021/10/25 00:54:47;;;;;;;2.23;1.53;;;;;;;4.36;84.93;96871.09;5037540;28;20214;-69
2021/10/25 00:57:14;;;;;;;2.33;1.70;;;;;;;4.29;83.92;96864.72;5035993;28;20221;-69
2021/10/25 00:59:41;;;;;;;1.70;1.60;;;;;;;4.38;83.32;96861.38;5036931;28;20876;-69
2021/10/25 01:02:07;;;;;;;1.10;1.03;;;;;;;4.43;83.21;96861.84;5037337;28;20201;-69
2021/10/25 01:04:34;;;;;;;1.43;1.33;;;;;;;4.23;82.42;96859.19;5036486;28;20207;-69
2021/10/25 01:07:03;;;;;;;2.37;1.40;;;;;;;4.34;82.01;96859.13;5035665;28;21089;-68
2021/10/25 01:09:31;;;;;;;3.10;1.87;;;;;;;3.77;82.44;96863.81;5037102;28;20208;-69
2021/10/25 01:11:57;;;;;;;0.80;0.80;;;;;;;3.72;82.02;96860.72;5038025;28;20205;-69
2021/10/25 01:14:24;;;;;;;3.27;1.63;;;;;;;3.78;82.51;96859.41;5036374;28;20215;-69
2021/10/25 01:16:51;;;;;;;4.77;1.30;;;;;;;3.93;83.19;96864.22;5035361;28;20693;-68
2021/10/25 01:19:17;;;;;;;2.60;1.87;;;;;;;3.72;83.64;96855.50;5037130;28;20212;-69
2021/10/25 01:21:45;;;;;;;1.67;1.57;;;;;;;4.12;82.73;96850.56;5034023;28;20235;-69
2021/10/25 01:24:12;;;;;;;1.80;1.63;;;;;;;3.73;82.93;96849.34;5036187;28;21127;-69
2021/10/25 01:26:38;;;;;;;2.53;1.50;;;;;;;3.84;82.54;96849.31;5035613;28;20737;-69
2021/10/25 01:29:06;;;;;;;1.63;1.47;;;;;;;3.99;82.62;96852.50;5036195;28;20215;-69
2021/10/25 01:31:32;;;;;;;1.27;1.00;;;;;;;4.01;82.00;96846.22;5036370;28;20208;-69
2021/10/25 01:33:59;;;;;;;1.10;1.00;;;;;;;3.98;82.39;96850.84;5036555;28;20211;-69
2021/10/25 01:36:25;;;;;;;0.77;0.77;;;;;;;3.95;81.76;96849.31;5035782;28;20231;-69
2021/10/25 01:38:53;;;;;;;7.33;1.63;;;;;;;4.14;81.75;96857.31;5036376;28;20211;-69
2021/10/25 01:41:20;;;;;;;3.00;2.33;;;;;;;3.75;81.70;96849.22;5036328;28;20225;-68
2021/10/25 01:43:47;;;;;;;1.70;1.33;;;;;;;3.79;81.53;96853.25;5036693;28;20982;-68
2021/10/25 01:46:14;;;;;;;1.27;1.00;;;;;;;3.84;81.72;96853.72;5035666;28;20232;-69
2021/10/25 01:48:40;;;;;;;3.70;2.13;;;;;;;3.74;82.37;96853.63;5036229;28;20565;-69
2021/10/25 01:51:07;;;;;;;2.00;1.33;;;;;;;3.80;84.01;96858.34;5036726;28;20201;-69
2021/10/25 01:53:35;;;;;;;2.37;2.17;;;;;;;3.79;84.87;96850.63;5036765;28;20715;-68
2021/10/25 01:56:03;;;;;;;2.67;1.33;;;;;;;3.90;85.21;96848.03;5035607;28;20231;-69
2021/10/25 01:58:30;;;;;;;4.03;2.40;;;;;;;3.89;85.32;96846.38;5036275;28;20726;-69
2021/10/25 02:00:56;;;;;;;3.33;1.47;;;;;;;3.81;85.94;96848.75;5036251;28;20220;-68
2021/10/25 02:03:23;;;;;;;2.37;2.17;;;;;;;3.73;86.54;96845.94;5033742;28;20209;-69
2021/10/25 02:05:50;;;;;;;1.70;1.20;;;;;;;3.74;85.70;96842.34;5035453;28;20239;-69
2021/10/25 02:08:16;;;;;;;6.17;3.23;;;;;;;3.85;86.39;96842.34;5036169;28;20214;-69
2021/10/25 02:10:43;;;;;;;0.97;0.87;;;;;;;3.85;87.15;96845.78;5036187;28;20201;-69
2021/10/25 02:13:15;;;;;;;1.90;1.80;;;;;;;4.06;87.70;96843.22;5036200;28;20250;-69
2021/10/25 02:15:43;;;;;;;1.60;1.40;;;;;;;3.85;87.65;96837.94;5036229;28;20221;-69
2021/10/25 02:18:09;;;;;;;3.27;2.17;;;;;;;3.80;87.83;96837.47;5035694;28;20213;-69
2021/10/25 02:20:36;;;;;;;2.87;1.77;;;;;;;3.71;87.25;96840.00;5032974;28;20236;-69
2021/10/25 02:23:02;;;;;;;2.23;2.00;;;;;;;3.50;88.63;96838.25;5037087;28;20209;-69
2021/10/25 02:25:29;;;;;;;2.13;1.90;;;;;;;3.65;88.39;96838.72;5036018;28;20220;-69
2021/10/25 02:27:55;;;;;;;1.87;1.57;;;;;;;3.71;88.79;96827.78;5036343;28;20205;-68
2021/10/25 02:30:24;;;;;;;2.17;1.17;;;;;;;3.86;88.88;96826.59;5035990;28;20212;-69
2021/10/25 02:32:51;;;;;;;3.67;1.90;;;;;;;3.76;87.90;96827.44;5035883;28;20205;-69
2021/10/25 02:35:17;;;;;;;3.10;1.17;;;;;;;3.77;88.57;96827.31;5035933;28;20208;-69
2021/10/25 02:37:44;;;;;;;4.30;2.93;;;;;;;3.73;89.38;96827.69;5035790;28;20210;-69
2021/10/25 02:40:12;;;;;;;1.43;1.33;;;;;;;3.93;88.84;96825.13;5040167;28;20236;-69
2021/10/25 02:42:39;;;;;;;4.43;2.47;;;;;;;3.91;88.09;96819.22;5039767;28;20222;-68
2021/10/25 02:45:06;;;;;;;1.60;1.50;;;;;;;3.89;87.68;96809.88;5039238;28;21426;-68
2021/10/25 02:47:34;;;;;;;2.90;1.90;;;;;;;4.02;86.61;96811.38;5038732;28;20236;-68
2021/10/25 02:50:01;;;;;;;1.63;1.30;;;;;;;3.85;87.82;96814.50;5039687;28;20212;-69
2021/10/25 02:52:27;;;;;;;2.63;2.27;;;;;;;3.93;87.13;96812.09;5039204;28;20672;-69
2021/10/25 02:54:54;;;;;;;1.47;1.37;;;;;;;3.88;86.14;96811.66;5039495;28;20204;-68
2021/10/25 02:57:20;;;;;;;2.93;2.30;;;;;;;4.03;85.83;96822.63;5038674;28;20882;-69
2021/10/25 02:59:47;;;;;;;4.87;2.60;;;;;;;4.12;85.73;96824.50;5036808;28;20669;-68
2021/10/25 03:02:14;;;;;;;2.00;1.53;;;;;;;4.18;86.53;96821.41;5039024;28;20240;-68
2021/10/25 03:04:42;;;;;;;2.70;2.17;;;;;;;3.88;87.23;96827.31;5039155;28;20220;-69
2021/10/25 03:07:08;;;;;;;3.03;2.20;;;;;;;3.46;88.59;96814.19;5038264;28;20237;-68
2021/10/25 03:09:35;;;;;;;0.87;0.83;;;;;;;3.74;87.69;96817.16;5039319;28;20215;-69
2021/10/25 03:12:01;;;;;;;1.27;1.20;;;;;;;3.99;87.03;96821.22;5039147;28;20975;-69
2021/10/25 03:14:28;;;;;;;7.40;4.03;;;;;;;4.10;87.20;96819.41;5039075;28;20208;-68
2021/10/25 03:16:55;;;;;;;2.30;1.67;;;;;;;4.22;87.39;96818.41;5037985;28;20880;-69
2021/10/25 03:19:21;;;;;;;3.30;1.83;;;;;;;4.16;87.30;96825.91;5038595;28;20637;-68
2021/10/25 03:21:49;;;;;;;3.47;2.43;;;;;;;4.15;88.72;96821.63;5036155;28;20247;-68
2021/10/25 03:24:16;;;;;;;2.93;1.50;;;;;;;4.05;88.50;96831.97;5039089;28;20218;-69
2021/10/25 03:26:43;;;;;;;3.23;1.27;;;;;;;4.17;88.87;96825.75;5037837;28;20229;-68
2021/10/25 03:29:10;;;;;;;2.63;2.43;;;;;;;4.27;88.84;96827.50;5038816;28;20578;-69
2021/10/25 03:31:37;;;;;;;0.90;0.90;;;;;;;3.94;90.31;96829.41;5039034;28;20215;-68
2021/10/25 03:34:03;;;;;;;3.10;2.77;;;;;;;4.10;89.40;96831.59;5038383;28;20205;-69
2021/10/25 03:36:31;;;;;;;6.57;2.77;;;;;;;4.05;90.15;96821.56;5037939;28;20727;-69
2021/10/25 03:38:59;;;;;;;1.57;1.47;;;;;;;4.17;90.68;96830.16;5038876;28;20247;-69
2021/10/25 03:41:31;;;;;;;1.90;1.77;;;;;;;4.01;91.79;96835.78;5038311;28;20322;-69
2021/10/25 03:44:01;;;;;;;6.40;2.77;;;;;;;4.10;91.02;96844.63;5038384;28;20201;-69
2021/10/25 03:46:34;;;;;;;2.00;1.77;;;;;;;4.15;90.25;96842.50;5038476;28;20316;-69
2021/10/25 03:49:05;;;;;;;2.10;1.87;;;;;;;3.92;91.32;96836.53;5037559;28;20254;-69
2021/10/25 03:51:32;;;;;;;3.33;2.30;;;;;;;4.22;90.20;96842.69;5037581;28;20295;-69
2021/10/25 03:54:18;;;;;;;1.30;1.20;;;;;;;4.42;90.20;96839.31;5038595;28;20217;-68
2021/10/25 03:57:07;;;;;;;5.13;2.93;;;;;;;4.15;90.67;96832.91;5037276;28;20225;-69
2021/10/25 03:59:41;;;;;;;1.57;1.43;;;;;;;4.09;91.25;96827.34;5038166;28;20294;-68
2021/10/25 04:02:24;;;;;;;2.93;2.67;;;;;;;3.99;91.13;96827.25;5038282;28;20230;-69
2021/10/25 04:27:10;;;;;;;4.40;3.10;;;;;;;3.76;92.43;96827.44;4990821;28;20451;-68
2021/10/25 04:29:37;;;;;;;2.10;1.47;;;;;;;3.70;93.89;96831.38;4990678;28;20267;-68
2021/10/25 04:32:07;;;;;;;1.17;1.10;;;;;;;3.79;94.54;96824.56;4991859;28;20577;-68
2021/10/25 04:34:33;;;;;;;1.67;1.30;;;;;;;3.62;94.14;96825.09;4991507;28;20304;-68
2021/10/25 04:37:00;;;;;;;1.33;1.23;;;;;;;3.54;94.88;96819.66;4990273;28;20241;-68
2021/10/25 04:39:27;;;;;;;1.67;1.57;;;;;;;3.51;95.00;96811.25;4991402;28;20209;-68
2021/10/25 04:41:53;;;;;;;2.07;1.93;;;;;;;3.56;95.08;96812.53;4991611;28;20202;-68
2021/10/25 04:44:20;;;;;;;4.70;2.27;;;;;;;3.41;95.09;96829.38;4990806;28;20208;-68
2021/10/25 04:46:47;;;;;;;2.87;2.10;;;;;;;3.48;95.25;96832.34;4990013;28;20219;-68
2021/10/25 04:49:15;;;;;;;3.27;2.93;;;;;;;3.46;95.87;96831.63;4991202;28;20706;-68
2021/10/25 04:51:41;;;;;;;1.53;1.20;;;;;;;3.45;95.83;96833.41;4990643;28;20270;-68
2021/10/25 04:54:08;;;;;;;1.70;1.47;;;;;;;3.52;95.40;96831.97;4991371;28;20234;-68
2021/10/25 04:56:34;;;;;;;3.93;2.27;;;;;;;3.35;95.43;96813.41;4989995;28;20706;-68
2021/10/25 04:59:01;;;;;;;5.57;2.93;;;;;;;3.53;95.27;96802.38;4990953;28;20211;-68
2021/10/25 05:01:27;;;;;;;2.40;2.03;;;;;;;3.60;94.72;96787.06;4990153;28;20210;-68
2021/10/25 05:03:54;;;;;;;5.03;2.10;;;;;;;3.78;94.42;96791.63;4992015;28;20205;-68
2021/10/25 05:06:22;;;;;;;2.60;1.53;;;;;;;3.78;94.94;96795.09;4989871;28;20254;-68
2021/10/25 05:08:49;;;;;;;4.80;2.50;;;;;;;3.91;94.30;96806.19;4990110;28;20209;-68
2021/10/25 05:11:15;;;;;;;2.60;1.83;;;;;;;3.86;94.53;96799.69;4991107;28;20205;-68
2021/10/25 05:13:43;;;;;;;3.87;2.57;;;;;;;3.84;94.97;96794.56;4991114;28;20221;-68
2021/10/25 05:16:10;;;;;;;3.13;2.30;;;;;;;3.93;94.87;96790.41;4989217;28;20284;-68
2021/10/25 05:18:37;;;;;;;1.97;1.70;;;;;;;4.18;95.00;96800.53;4990586;28;20207;-68
2021/10/25 05:21:03;;;;;;;1.63;1.53;;;;;;;4.01;94.18;96799.28;4988224;28;20206;-68
2021/10/25 05:23:31;;;;;;;3.50;2.80;;;;;;;4.23;95.30;96793.97;4990182;28;20210;-68
2021/10/25 05:25:58;;;;;;;3.10;2.60;;;;;;;4.23;93.93;96801.81;4984320;28;20226;-68
2021/10/25 05:28:24;;;;;;;1.90;1.17;;;;;;;4.25;93.94;96802.50;4977545;28;20221;-69
2021/10/25 05:30:51;;;;;;;2.50;2.20;;;;;;;4.27;94.01;96803.22;4977519;28;20207;-68
2021/10/25 05:33:21;;;;;;;1.20;1.17;;;;;;;4.28;94.60;96802.25;4977385;28;20210;-68
2021/10/25 05:35:47;;;;;;;3.23;2.93;;;;;;;4.43;93.64;96796.59;4977074;28;20304;-68
2021/10/25 05:38:14;;;;;;;3.50;1.90;;;;;;;4.47;93.16;96805.03;4977322;28;20826;-69
2021/10/25 05:40:42;;;;;;;3.70;2.63;;;;;;;4.70;93.17;96811.75;4977288;28;20289;-68
2021/10/25 05:43:09;;;;;;;6.40;2.60;;;;;;;4.41;92.91;96818.56;4976887;28;20298;-68
2021/10/25 05:47:57;;;;;;;2.90;1.77;;;;;;;4.63;92.65;96808.00;5054474;27;20554;-69
2021/10/25 05:50:24;;;;;;;4.83;2.73;;;;;;;4.54;92.37;96799.16;5054677;28;20200;-68
2021/10/25 05:52:50;;;;;;;6.07;3.33;;;;;;;4.37;92.27;96791.06;5054291;28;20207;-68
2021/10/25 05:55:22;;;;;;;3.73;2.17;;;;;;;4.25;92.18;96784.22;5054605;28;20208;-68
2021/10/25 05:57:49;;;;;;;4.83;3.07;;;;;;;4.12;92.64;96795.81;5034252;28;20296;-69
2021/10/25 06:00:16;;;;;;;3.90;2.77;;;;;;;4.01;93.10;96791.47;5033854;28;20212;-69
2021/10/25 06:02:52;;;;;;;3.87;2.47;;;;;;;4.27;92.80;96790.16;5033487;28;20205;-68
2021/10/25 06:05:20;;;;;;;1.77;1.57;;;;;;;4.36;93.09;96805.88;5034422;28;20254;-69
2021/10/25 06:07:47;;;;;;;2.70;2.20;;;;;;;4.26;93.56;96810.22;5033281;28;20221;-69
2021/10/25 06:10:14;;;;;;;1.80;1.70;;;;;;;4.16;94.07;96824.09;5032915;28;21238;-69
2021/10/25 06:12:43;;;;;;;6.93;3.37;;;;;;;4.25;93.82;96815.53;5033832;28;20201;-69
2021/10/25 06:15:15;;;;;;;5.53;2.77;;;;;;;4.11;94.12;96797.59;5034380;28;20683;-70
2021/10/25 06:17:52;;;;;;;3.10;2.20;;;;;;;4.41;93.67;96795.09;5032785;28;20227;-69
2021/10/25 06:20:20;;;;;;;2.47;1.90;;;;;;;4.54;92.59;96804.38;5030689;28;20275;-69
2021/10/25 06:22:47;;;;;;;3.13;2.57;;;;;;;4.43;92.07;96791.41;5034768;28;20198;-69
2021/10/25 06:25:15;;;;;;;2.37;2.17;;;;;;;4.41;92.51;96795.09;5033426;28;20193;-69
2021/10/25 06:27:42;;;;;;;4.17;2.57;;;;;;;4.47;92.13;96802.41;5032989;28;20262;-69
2021/10/25 06:30:10;;;;;;;2.33;2.13;;;;;;;4.42;92.70;96800.16;5033243;28;20291;-69
2021/10/25 06:32:37;;;;;;;3.40;2.17;;;;;;;4.27;92.75;96808.44;5034299;28;20206;-69
2021/10/25 06:35:05;;;;;;;7.53;3.03;;;;;;;4.32;93.18;96811.50;5034426;28;20209;-70
2021/10/25 06:37:37;;;;;;;3.90;1.93;;;;;;;4.41;92.68;96810.72;5032856;28;20224;-69
2021/10/25 06:40:07;;;;;;;1.73;1.63;;;;;;;4.37;92.17;96817.97;5033123;28;20209;-69
2021/10/25 06:42:33;;;;;;;4.77;1.40;;;;;;;4.42;91.59;96825.44;5033247;28;20725;-69
2021/10/25 06:45:01;;;;;;;4.87;3.30;;;;;;;4.30;91.82;96806.41;5033625;28;20772;-69
2021/10/25 06:47:27;;;;;;;5.03;3.13;;;;;;;4.56;91.75;96822.53;5032425;28;20227;-69
2021/10/25 06:49:54;;;;;;;2.83;2.03;;;;;;;4.59;91.71;96843.16;5033028;28;20205;-69
2021/10/25 06:52:21;;;;;;;5.50;4.23;;;;;;;4.71;91.50;96848.19;5033174;28;20217;-69
2021/10/25 06:54:49;;;;;;;13.93;2.80;;;;;;;4.81;91.14;96832.56;5032847;28;20212;-69
2021/10/25 06:57:15;;;;;;;2.70;2.33;;;;;;;4.78;90.98;96833.66;5031212;28;20264;-69
2021/10/25 06:59:42;;;;;;;2.13;1.77;;;;;;;4.68;90.18;96816.28;5019676;28;20202;-70
2021/10/25 07:02:08;;;;;;;1.90;1.80;;;;;;;4.57;90.94;96816.34;5020120;28;20205;-69
2021/10/25 07:04:35;;;;;;;3.70;2.63;;;;;;;4.82;90.27;96818.56;5019404;28;20206;-69
2021/10/25 07:07:02;;;;;;;3.67;1.70;;;;;;;4.71;90.19;96819.47;5018981;28;20226;-69
2021/10/25 07:09:29;;;;;;;2.43;2.23;;;;;;;4.68;89.81;96822.31;5019958;28;20244;-69
2021/10/25 07:11:57;;;;;;;8.20;2.50;;;;;;;5.06;89.78;96839.03;5019956;28;20206;-69
2021/10/25 07:14:28;;;;;;;4.93;3.37;;;;;;;4.79;90.44;96866.66;5019824;28;21118;-69
2021/10/25 07:17:05;;;;;;;2.40;1.83;;;;;;;4.57;91.25;96858.09;5018529;28;20222;-69
2021/10/25 07:19:43;;;;;;;1.83;1.73;;;;;;;4.59;91.19;96854.41;5019620;28;20299;-69
2021/10/25 08:01:13;;;;;;;3.00;2.47;;;;;;;4.72;91.58;96851.63;5018757;28;20220;-69
2021/10/25 08:04:04;;;;;;;2.27;1.73;;;;;;;4.71;91.13;96861.25;5018910;28;20316;-69
2021/10/25 08:06:36;;;;;;;5.40;2.17;;;;;;;4.82;90.53;96878.63;5017399;28;20230;-69
2021/10/25 08:09:10;;;;;;;2.63;2.30;;;;;;;5.11;90.70;96856.97;5018696;28;20606;-68
2021/10/25 08:11:42;;;;;;;6.03;2.00;;;;;;;5.06;91.40;96839.03;5018463;28;20298;-69
2021/10/25 08:14:10;;;;;;;3.80;2.60;;;;;;;5.17;91.05;96828.53;5018760;28;20227;-69
2021/10/25 08:16:46;;;;;;;5.93;2.90;;;;;;;5.47;90.56;96845.03;5017693;28;20225;-69
2021/10/25 08:19:26;;;;;;;3.40;2.23;;;;;;;5.51;89.84;96871.72;5018706;28;20213;-69
2021/10/25 08:21:55;;;;;;;6.10;3.10;;;;;;;5.89;89.10;96871.91;5014500;28;20292;-69
2021/10/25 08:24:24;;;;;;;8.27;4.37;;;;;;;5.43;91.21;96853.25;5018447;28;20290;-69
2021/10/25 08:26:51;;;;;;;4.23;2.60;;;;;;;5.50;90.61;96836.13;5017226;28;20236;-69
2021/10/25 08:29:18;;;;;;;4.13;3.07;;;;;;;5.71;89.60;96836.88;5018185;28;20202;-68
2021/10/25 08:31:53;;;;;;;6.73;3.30;;;;;;;6.06;88.95;96848.56;5018414;28;20986;-69
2021/10/25 08:39:51;;;;;;;5.63;3.83;;;;;;;6.55;87.86;96841.41;5017871;28;20224;-69
2021/10/25 08:42:20;;;;;;;5.23;3.67;;;;;;;6.73;87.40;96847.63;5017769;28;20202;-69
2021/10/25 08:44:49;;;;;;;3.87;2.60;;;;;;;6.74;88.34;96839.63;5017674;28;20221;-69
2021/10/25 08:47:22;;;;;;;4.03;2.70;;;;;;;7.00;88.54;96808.41;5016847;28;20305;-69
2021/10/25 08:49:48;;;;;;;5.73;3.00;;;;;;;7.16;86.23;96817.34;5018080;28;20296;-70
2021/10/25 08:52:20;;;;;;;7.17;3.37;;;;;;;7.22;88.21;96829.03;5017981;28;20201;-69
2021/10/25 08:54:46;;;;;;;6.57;3.17;;;;;;;7.25;86.54;96828.78;5017760;28;20216;-69
2021/10/25 08:57:13;;;;;;;3.97;3.27;;;;;;;7.20;85.44;96833.63;5016824;28;20214;-69
2021/10/25 08:59:40;;;;;;;5.27;3.50;;;;;;;7.10;87.71;96824.94;5017570;28;20202;-69
2021/10/25 09:02:09;;;;;;;6.30;3.07;;;;;;;7.28;87.36;96826.72;5018092;28;20954;-69
2021/10/25 09:04:37;;;;;;;5.43;2.77;;;;;;;7.61;86.48;96841.88;5017550;28;20202;-69
2021/10/25 09:07:03;;;;;;;6.27;3.97;;;;;;;7.55;87.26;96837.25;5016977;28;20893;-69
2021/10/25 09:09:31;;;;;;;1.70;1.60;;;;;;;7.02;89.46;96824.84;5016977;28;20209;-69
2021/10/25 09:12:04;;;;;;;8.33;3.67;;;;;;;7.71;88.19;96825.13;5017900;28;20214;-69
2021/10/25 09:14:32;;;;;;;6.20;3.80;;;;;;;7.46;87.28;96820.56;5016897;28;20210;-69
2021/10/25 09:17:00;;;;;;;5.90;3.73;;;;;;;7.78;85.95;96820.13;5016281;28;21161;-68
2021/10/25 09:19:30;;;;;;;3.63;3.20;;;;;;;7.77;85.48;96824.56;5018121;28;20202;-68
2021/10/25 09:22:07;;;;;;;4.70;2.90;;;;;;;7.95;86.55;96830.66;5015391;28;20213;-68
2021/10/25 09:24:34;;;;;;;2.30;1.63;;;;;;;7.57;87.33;96838.72;5016648;28;20209;-69
2021/10/25 09:27:04;;;;;;;2.97;1.73;;;;;;;7.76;87.03;96836.00;5016103;28;20233;-69
2021/10/25 09:29:33;;;;;;;7.50;3.67;;;;;;;7.60;88.44;96827.97;5016522;28;20210;-69
2021/10/25 09:32:06;;;;;;;7.57;3.70;;;;;;;7.73;88.43;96812.72;5017086;28;20220;-69
2021/10/25 09:34:37;;;;;;;7.30;4.27;;;;;;;8.26;86.86;96819.75;5017156;28;20244;-70
2021/10/25 09:37:08;;;;;;;4.13;2.83;;;;;;;8.25;87.13;96812.84;5016829;28;20222;-68
2021/10/25 09:39:42;;;;;;;7.53;3.17;;;;;;;8.01;87.43;96822.22;5016892;28;20313;-69
2021/10/25 09:42:49;;;;;;;7.03;3.03;;;;;;;8.03;88.37;96807.13;5017744;28;20293;-70
2021/10/25 09:45:41;;;;;;;3.30;2.13;;;;;;;8.27;87.13;96804.81;5016558;28;20205;-69
2021/10/25 09:51:00;;;;;;;7.57;3.93;;;;;;;8.48;88.08;96810.56;5016505;28;20194;-69
2021/10/25 09:53:34;;;;;;;4.50;3.17;;;;;;;8.80;87.36;96807.25;5017054;28;20206;-69
2021/10/25 09:56:01;;;;;;;11.57;5.40;;;;;;;8.71;86.86;96810.78;5015418;28;20265;-70
2021/10/25 09:58:41;;;;;;;10.47;4.50;;;;;;;9.08;86.64;96799.06;5017185;28;20194;-69
2021/10/25 10:01:09;;;;;;;3.43;2.73;;;;;;;8.86;87.34;96803.19;5016899;28;20286;-68
2021/10/25 10:03:36;;;;;;;6.17;3.67;;;;;;;8.72;88.00;96809.81;5016589;28;20764;-69
2021/10/25 10:06:02;;;;;;;9.60;4.73;;;;;;;8.60;89.12;96811.03;5015769;28;20241;-69
2021/10/25 10:08:29;;;;;;;9.30;4.00;;;;;;;8.87;88.32;96808.31;5017036;28;20717;-69
2021/10/25 10:10:57;;;;;;;5.80;2.83;;;;;;;9.30;87.75;96809.06;5016718;28;20201;-69
2021/10/25 10:13:26;;;;;;;6.27;4.17;;;;;;;9.30;87.97;96801.19;5016490;28;20288;-69
2021/10/25 10:15:57;;;;;;;7.33;4.77;;;;;;;9.39;88.96;96799.44;5015835;28;20291;-70
2021/10/25 10:18:26;;;;;;;9.83;5.13;;;;;;;9.40;87.48;96790.56;5016577;28;20544;-70
2021/10/25 10:20:57;;;;;;;12.60;6.33;;;;;;;9.62;87.31;96790.03;5013657;28;20206;-69
2021/10/25 10:23:24;;;;;;;9.90;4.50;;;;;;;9.93;85.54;96786.72;5017144;28;20212;-70
2021/10/25 10:25:53;;;;;;;4.87;3.00;;;;;;;9.88;86.87;96787.16;5015365;28;20226;-69
2021/10/25 10:28:34;;;;;;;8.07;5.40;;;;;;;10.22;85.69;96785.34;5016809;28;20229;-68
2021/10/25 10:31:04;;;;;;;14.73;6.50;;;;;;;10.29;86.19;96774.97;5017804;28;20210;-69
2021/10/25 10:33:33;;;;;;;11.17;5.90;;;;;;;10.45;85.72;96775.78;5018521;28;20289;-69
2021/10/25 10:36:11;;;;;;;13.37;5.50;;;;;;;10.80;85.52;96781.59;5019087;28;20360;-69
2021/10/25 10:38:48;;;;;;;11.40;4.97;;;;;;;11.07;83.95;96779.44;5020086;28;20197;-69
2021/10/25 10:41:16;;;;;;;11.30;5.13;;;;;;;10.89;84.62;96767.41;5020664;28;20221;-70
2021/10/25 10:43:56;;;;;;;9.73;3.83;;;;;;;11.31;83.69;96774.09;5019910;28;20197;-70
2021/10/25 10:46:24;;;;;;;15.47;6.37;;;;;;;10.61;84.56;96760.81;5019193;28;20240;-70
2021/10/25 10:48:55;;;;;;;11.90;4.87;;;;;;;10.99;83.53;96757.50;5019800;28;20222;-70
2021/10/25 10:51:27;;;;;;;9.37;4.27;;;;;;;11.54;82.69;96767.13;5019818;28;20217;-69
2021/10/25 10:54:03;;;;;;;9.07;5.20;;;;;;;11.48;82.68;96753.78;5020687;28;21228;-69
2021/10/25 10:56:34;;;;;;;14.30;6.13;;;;;;;11.52;82.13;96748.03;5018903;28;20620;-69
2021/10/25 11:01:53;;;;;;;11.57;5.70;;;;;;;11.46;82.90;96748.66;5016143;28;20198;-68
2021/10/25 11:04:28;;;;;;;12.70;5.23;;;;;;;11.48;82.49;96751.97;5019863;28;20198;-70
2021/10/25 11:06:59;;;;;;;13.43;3.33;;;;;;;12.19;85.80;96753.47;5018565;28;20251;-70
2021/10/25 11:09:30;;;;;;;11.03;5.10;;;;;;;12.97;81.74;96745.97;5020080;28;20312;-70
2021/10/25 11:12:00;;;;;;;7.17;3.87;;;;;;;13.22;78.72;96743.91;5019408;28;20209;-70
2021/10/25 11:14:30;;;;;;;9.23;4.37;;;;;;;13.48;77.43;96740.63;5019365;28;20194;-71
2021/10/25 11:17:13;;;;;;;10.03;5.37;;;;;;;13.07;77.87;96740.41;5018245;28;20236;-70
2021/10/25 11:19:45;;;;;;;16.80;7.17;;;;;;;12.38;80.51;96737.16;5019551;28;20469;-70
2021/10/25 11:22:11;;;;;;;12.00;6.03;;;;;;;12.35;79.93;96733.06;5017047;28;21035;-68
2021/10/25 11:24:38;;;;;;;14.03;6.07;;;;;;;12.13;80.30;96734.84;5018901;28;20206;-69
2021/10/25 11:27:04;;;;;;;10.03;5.13;;;;;;;12.20;79.73;96724.22;5018453;28;20318;-68
2021/10/25 11:29:36;;;;;;;17.30;5.93;;;;;;;12.42;80.88;96719.94;5018859;28;20209;-69
2021/10/25 11:32:05;;;;;;;12.20;5.07;;;;;;;12.19;81.14;96722.59;5017971;28;20249;-69
2021/10/25 11:34:35;;;;;;;15.30;7.10;;;;;;;12.18;81.31;96722.75;5019821;28;20210;-67
2021/10/25 11:37:06;;;;;;;8.17;4.83;;;;;;;12.29;81.95;96723.16;5018060;28;20241;-69
2021/10/25 11:39:39;;;;;;;10.27;4.50;;;;;;;12.36;81.64;96718.84;5018639;28;20205;-67
2021/10/25 11:42:07;;;;;;;15.30;5.63;;;;;;;12.39;82.67;96715.84;5019761;28;20311;-69
2021/10/25 11:44:35;;;;;;;13.07;5.83;;;;;;;12.49;83.03;96712.97;5019245;28;20581;-67
2021/10/25 11:47:02;;;;;;;15.03;5.37;;;;;;;12.38;82.34;96710.72;5018045;28;20237;-68
2021/10/25 11:49:29;;;;;;;12.53;6.03;;;;;;;12.39;81.72;96705.25;5018280;28;20882;-68
2021/10/25 11:51:56;;;;;;;9.83;4.57;;;;;;;12.54;82.28;96710.63;5018805;28;20960;-69
2021/10/25 11:54:23;;;;;;;12.23;5.03;;;;;;;12.40;81.95;96709.56;5017744;28;20352;-68
2021/10/25 11:56:51;;;;;;;14.73;3.90;;;;;;;12.24;81.65;96714.97;5017484;28;20222;-68
2021/10/25 11:59:18;;;;;;;9.90;5.03;;;;;;;12.28;82.04;96716.25;5018069;28;20194;-69
2021/10/25 12:01:47;;;;;;;10.23;3.83;;;;;;;12.53;81.98;96720.34;5016194;28;20304;-68
2021/10/25 12:04:16;;;;;;;9.20;5.17;;;;;;;12.60;81.72;96710.72;5017736;28;20212;-68
2021/10/25 12:06:53;;;;;;;9.10;3.93;;;;;;;12.69;80.60;96708.81;5016664;28;20264;-69
2021/10/25 12:09:21;;;;;;;18.17;5.23;;;;;;;12.26;81.49;96707.69;5016914;28;20217;-69
2021/10/25 12:11:53;;;;;;;10.97;4.90;;;;;;;12.51;80.80;96700.38;5017570;28;20210;-68
2021/10/25 12:14:25;;;;;;;13.00;6.60;;;;;;;12.66;78.85;96694.13;5018209;28;20361;-68
2021/10/25 12:16:53;;;;;;;10.10;5.07;;;;;;;12.67;79.75;96694.97;5017167;28;20234;-69
2021/10/25 12:19:20;;;;;;;15.27;5.07;;;;;;;12.71;79.36;96693.63;5017395;28;20213;-69
2021/10/25 12:21:47;;;;;;;8.77;3.77;;;;;;;12.64;79.20;96696.16;5018146;28;20217;-68
2021/10/25 12:24:15;;;;;;;12.73;5.67;;;;;;;12.91;78.89;96693.78;5017604;28;20209;-68
2021/10/25 12:26:42;;;;;;;12.90;5.17;;;;;;;13.15;78.96;96687.41;5017041;28;20222;-68
2021/10/25 12:29:14;;;;;;;10.70;4.90;;;;;;;13.21;78.33;96684.03;5017771;28;20222;-69
2021/10/25 12:31:40;;;;;;;14.10;6.00;;;;;;;13.00;77.85;96676.81;5017972;28;20202;-69
2021/10/25 12:34:08;;;;;;;14.20;6.30;;;;;;;13.47;77.52;96664.84;5017228;28;20210;-68
2021/10/25 12:36:37;;;;;;;12.17;5.40;;;;;;;13.70;76.95;96670.84;5016945;28;20222;-68
2021/10/25 12:39:08;;;;;;;12.20;5.20;;;;;;;13.71;76.66;96659.25;5017656;28;20202;-69
2021/10/25 12:41:48;;;;;;;12.27;5.00;;;;;;;13.82;76.61;96658.75;5017174;28;20292;-67
2021/10/25 12:44:25;;;;;;;15.17;5.00;;;;;;;13.74;77.47;96666.00;5017751;28;20201;-68
2021/10/25 12:46:52;;;;;;;11.47;5.17;;;;;;;13.55;76.10;96670.03;5017629;28;20237;-68
2021/10/25 12:49:22;;;;;;;11.83;4.63;;;;;;;13.73;76.24;96670.47;5017361;28;20226;-69
2021/10/25 12:51:49;;;;;;;11.60;6.27;;;;;;;13.64;76.23;96674.22;5018322;28;20211;-68
2021/10/25 12:54:16;;;;;;;27.85;4.97;;;;;;;13.81;76.21;96667.75;5017986;28;20205;-69
2021/10/25 12:56:43;;;;;;;11.80;5.82;;;;;;;13.96;75.61;96673.78;5015525;28;20229;-69
2021/10/25 12:59:12;;;;;;;7.60;4.60;;;;;;;13.97;76.02;96667.50;5016824;28;20659;-68
2021/10/25 13:01:39;;;;;;;14.98;6.47;;;;;;;14.06;75.39;96661.91;5015646;28;20202;-69